Wausa, Nebraska
Current Conditions -  °F | °C
As of 1:15 AM on Monday 22 Dec 2014 (Local Time) from KYKN Reporting Station
Overcast Overcast  
Wind Chill: 33°   Ceiling: 1000
Heat Index: 39°   Visibility: 7mi
Dew Point: 37°   Wind: 9mph
Humidity: 93%   Direction: 170°S
Pressure: 29.52"   Gusts: NA
Location:  42.5°N, 97.54°W
Report Text: KYKN 220715Z AUTO 17008KT 7SM OVC010 04/03 A2952 RMK AO1 P0002
Loading
Personal Weather Stations






























Interactive Weather Map New forecast layout! Learn more

10-Day Weather Forecast

Advertisements
Track Severe Weather on mobile